Menu Horizontal
luftaufnahme
Willkommen auf der Webseite der privaten Wetterstation -- Taufkirchen an der Pram -- 48°24'29,52" Nord  <>  13°32'13,20" Ost
Wetterdaten - Montag, 21.05.2018 - Taufkirchen an der Pram     336 m über NN
Wetterdaten: aktuell Montag, 21.05.2018 08:40
Datum Zeit Temp. A. Feuchte A. Luftdruck Regen Wind Sonnenschein UV Solar Windchill Empfang
21.05.2018 08:40 18,4 °C 61 % 1016,1 hPa 0,0 l/m² 9,7 km/h 10 min 1,8 UV-I 390 W/m² 17,0 °C 100 %
21.05.2018 08:30 18,1 °C 62 % 1016,1 hPa 0,0 l/m² 11,3 km/h 10 min 1,6 UV-I 364 W/m² 16,1 °C 100 %
21.05.2018 08:20 18,0 °C 62 % 1016,2 hPa 0,0 l/m² 11,3 km/h 10 min 1,5 UV-I 337 W/m² 16,0 °C 100 %
21.05.2018 08:10 17,9 °C 65 % 1016,2 hPa 0,0 l/m² 6,4 km/h 10 min 1,3 UV-I 309 W/m² 17,9 °C 100 %
21.05.2018 08:00 17,4 °C 66 % 1016,3 hPa 0,0 l/m² 6,4 km/h 10 min 1,2 UV-I 283 W/m² 17,4 °C 100 %
21.05.2018 07:50 16,9 °C 66 % 1016,4 hPa 0,0 l/m² 6,4 km/h 10 min 1,1 UV-I 257 W/m² 16,9 °C 100 %
21.05.2018 07:40 16,6 °C 67 % 1016,4 hPa 0,0 l/m² 6,4 km/h 10 min 0,9 UV-I 231 W/m² 16,6 °C 100 %
21.05.2018 07:30 16,1 °C 68 % 1016,5 hPa 0,0 l/m² 4,8 km/h 10 min 0,8 UV-I 206 W/m² 16,1 °C 100 %
21.05.2018 07:20 15,6 °C 73 % 1016,5 hPa 0,0 l/m² 1,6 km/h 10 min 0,7 UV-I 182 W/m² 15,6 °C 100 %
21.05.2018 07:10 14,9 °C 75 % 1016,6 hPa 0,0 l/m² 1,6 km/h 10 min 0,6 UV-I 157 W/m² 14,9 °C 100 %
21.05.2018 07:00 14,3 °C 77 % 1016,7 hPa 0,0 l/m² 1,6 km/h 10 min 0,5 UV-I 130 W/m² 14,3 °C 100 %
21.05.2018 06:50 13,7 °C 79 % 1016,8 hPa 0,0 l/m² 0,0 km/h 10 min 0,4 UV-I 103 W/m² 13,7 °C 100 %
21.05.2018 06:40 13,2 °C 81 % 1016,8 hPa 0,0 l/m² 0,0 km/h 0 min 0,0 UV-I 79 W/m² 13,2 °C 100 %
21.05.2018 06:30 12,6 °C 81 % 1016,8 hPa 0,0 l/m² 0,0 km/h 0 min 0,0 UV-I 51 W/m² 12,6 °C 100 %
21.05.2018 06:20 12,6 °C 80 % 1016,7 hPa 0,0 l/m² 0,0 km/h 0 min 0,0 UV-I 26 W/m² 12,6 °C 100 %
21.05.2018 06:10 12,5 °C 79 % 1016,7 hPa 0,0 l/m² 0,0 km/h 0 min 0,0 UV-I 22 W/m² 12,5 °C 100 %
21.05.2018 06:00 12,6 °C 78 % 1016,6 hPa 0,0 l/m² 0,0 km/h 0 min 0,0 UV-I 17 W/m² 12,6 °C 100 %
21.05.2018 05:50 12,7 °C 78 % 1016,6 hPa 0,0 l/m² 0,0 km/h 0 min 0,0 UV-I 13 W/m² 12,7 °C 100 %
21.05.2018 05:40 12,9 °C 77 % 1016,6 hPa 0,0 l/m² 0,0 km/h 0 min 0,0 UV-I 9 W/m² 12,9 °C 100 %
21.05.2018 05:30 13,2 °C 75 % 1016,7 hPa 0,0 l/m² 0,0 km/h 0 min 0,0 UV-I 4 W/m² 13,2 °C 100 %
21.05.2018 05:20 13,5 °C 74 % 1016,7 hPa 0,0 l/m² 0,0 km/h 0 min 0,0 UV-I 0 W/m² 13,5 °C 100 %
21.05.2018 05:10 13,7 °C 74 % 1016,6 hPa 0,0 l/m² 0,0 km/h 0 min 0,0 UV-I 0 W/m² 13,7 °C 100 %
21.05.2018 05:00 13,8 °C 73 % 1016,6 hPa 0,0 l/m² 1,6 km/h 0 min 0,0 UV-I 0 W/m² 13,8 °C 100 %
21.05.2018 04:50 13,8 °C 74 % 1016,5 hPa 0,0 l/m² 6,4 km/h 0 min 0,0 UV-I 0 W/m² 13,8 °C 100 %
21.05.2018 04:40 13,8 °C 74 % 1016,5 hPa 0,0 l/m² 4,8 km/h 0 min 0,0 UV-I 0 W/m² 13,8 °C 100 %
21.05.2018 04:30 13,9 °C 73 % 1016,6 hPa 0,0 l/m² 3,2 km/h 0 min 0,0 UV-I 0 W/m² 13,9 °C 100 %
21.05.2018 04:20 14,2 °C 72 % 1016,7 hPa 0,0 l/m² 0,0 km/h 0 min 0,0 UV-I 0 W/m² 14,2 °C 100 %
21.05.2018 04:10 14,5 °C 71 % 1016,8 hPa 0,0 l/m² 3,2 km/h 0 min 0,0 UV-I 0 W/m² 14,5 °C 100 %
21.05.2018 04:00 14,7 °C 70 % 1016,8 hPa 0,0 l/m² 4,8 km/h 0 min 0,0 UV-I 0 W/m² 14,7 °C 100 %
21.05.2018 03:50 14,8 °C 70 % 1016,8 hPa 0,0 l/m² 6,4 km/h 0 min 0,0 UV-I 0 W/m² 14,8 °C 100 %
21.05.2018 03:40 14,8 °C 70 % 1016,9 hPa 0,0 l/m² 6,4 km/h 0 min 0,0 UV-I 0 W/m² 14,8 °C 100 %
21.05.2018 03:30 14,9 °C 69 % 1016,9 hPa 0,0 l/m² 6,4 km/h 0 min 0,0 UV-I 0 W/m² 14,9 °C 100 %
21.05.2018 03:20 15,0 °C 69 % 1016,9 hPa 0,0 l/m² 3,2 km/h 0 min 0,0 UV-I 0 W/m² 15,0 °C 100 %
21.05.2018 03:10 15,2 °C 69 % 1016,9 hPa 0,0 l/m² 4,8 km/h 0 min 0,0 UV-I 0 W/m² 15,2 °C 100 %
21.05.2018 03:00 15,2 °C 69 % 1017,0 hPa 0,0 l/m² 6,4 km/h 0 min 0,0 UV-I 0 W/m² 15,2 °C 100 %
21.05.2018 02:50 15,1 °C 69 % 1017,1 hPa 0,0 l/m² 4,8 km/h 0 min 0,0 UV-I 0 W/m² 15,1 °C 100 %
21.05.2018 02:40 15,2 °C 69 % 1017,2 hPa 0,0 l/m² 4,8 km/h 0 min 0,0 UV-I 0 W/m² 15,2 °C 100 %
21.05.2018 02:30 15,3 °C 68 % 1017,3 hPa 0,0 l/m² 3,2 km/h 0 min 0,0 UV-I 0 W/m² 15,3 °C 100 %
21.05.2018 02:20 15,4 °C 67 % 1017,4 hPa 0,0 l/m² 4,8 km/h 0 min 0,0 UV-I 0 W/m² 15,4 °C 100 %
21.05.2018 02:10 15,6 °C 67 % 1017,5 hPa 0,0 l/m² 4,8 km/h 0 min 0,0 UV-I 0 W/m² 15,6 °C 100 %
21.05.2018 02:00 15,7 °C 66 % 1017,6 hPa 0,0 l/m² 6,4 km/h 0 min 0,0 UV-I 0 W/m² 15,7 °C 100 %
21.05.2018 01:50 15,8 °C 66 % 1017,7 hPa 0,0 l/m² 6,4 km/h 0 min 0,0 UV-I 0 W/m² 15,8 °C 100 %
21.05.2018 01:40 15,8 °C 65 % 1017,8 hPa 0,0 l/m² 6,4 km/h 0 min 0,0 UV-I 0 W/m² 15,8 °C 100 %
21.05.2018 01:30 15,8 °C 65 % 1017,8 hPa 0,0 l/m² 6,4 km/h 0 min 0,0 UV-I 0 W/m² 15,8 °C 100 %
21.05.2018 01:20 15,9 °C 65 % 1017,9 hPa 0,0 l/m² 4,8 km/h 0 min 0,0 UV-I 0 W/m² 15,9 °C 100 %
21.05.2018 01:10 16,0 °C 63 % 1017,9 hPa 0,0 l/m² 4,8 km/h 0 min 0,0 UV-I 0 W/m² 16,0 °C 100 %
21.05.2018 01:00 16,1 °C 63 % 1018,1 hPa 0,0 l/m² 4,8 km/h 0 min 0,0 UV-I 0 W/m² 16,1 °C 100 %
21.05.2018 00:50 16,2 °C 61 % 1018,1 hPa 0,0 l/m² 4,8 km/h 0 min 0,0 UV-I 0 W/m² 16,2 °C 100 %
21.05.2018 00:40 16,2 °C 60 % 1018,1 hPa 0,0 l/m² 3,2 km/h 0 min 0,0 UV-I 0 W/m² 16,2 °C 100 %
21.05.2018 00:30 16,3 °C 59 % 1018,2 hPa 0,0 l/m² 3,2 km/h 0 min 0,0 UV-I 0 W/m² 16,3 °C 100 %
21.05.2018 00:20 16,5 °C 58 % 1018,3 hPa 0,0 l/m² 3,2 km/h 0 min 0,0 UV-I 0 W/m² 16,5 °C 100 %
21.05.2018 00:10 16,6 °C 57 % 1018,3 hPa 0,0 l/m² 4,8 km/h 0 min 0,0 UV-I 0 W/m² 16,6 °C 100 %
21.05.2018 00:00 16,6 °C 57 % 1018,3 hPa 0,0 l/m² 6,4 km/h 0 min 0,0 UV-I 0 W/m² 16,6 °C 100 %
20.05.2018 23:50 16,6 °C 57 % 1018,3 hPa 0,0 l/m² 4,8 km/h 0 min 0,0 UV-I 0 W/m² 16,6 °C 100 %
20.05.2018 23:40 16,4 °C 56 % 1018,3 hPa 0,0 l/m² 4,8 km/h 0 min 0,0 UV-I 0 W/m² 16,4 °C 100 %
20.05.2018 23:30 16,3 °C 56 % 1018,3 hPa 0,0 l/m² 4,8 km/h 0 min 0,0 UV-I 0 W/m² 16,3 °C 100 %
20.05.2018 23:20 16,2 °C 57 % 1018,4 hPa 0,0 l/m² 3,2 km/h 0 min 0,0 UV-I 0 W/m² 16,2 °C 100 %
20.05.2018 23:10 15,9 °C 58 % 1018,5 hPa 0,0 l/m² 3,2 km/h 0 min 0,0 UV-I 0 W/m² 15,9 °C 100 %
20.05.2018 23:00 15,7 °C 58 % 1018,5 hPa 0,0 l/m² 3,2 km/h 0 min 0,0 UV-I 0 W/m² 15,7 °C 100 %
20.05.2018 22:50 15,4 °C 60 % 1018,5 hPa 0,0 l/m² 1,6 km/h 0 min 0,0 UV-I 0 W/m² 15,4 °C 100 %
20.05.2018 22:40 15,3 °C 62 % 1018,6 hPa 0,0 l/m² 1,6 km/h 0 min 0,0 UV-I 0 W/m² 15,3 °C 100 %
20.05.2018 22:30 15,3 °C 65 % 1018,5 hPa 0,0 l/m² 0,0 km/h 0 min 0,0 UV-I 0 W/m² 15,3 °C 100 %
20.05.2018 22:20 15,7 °C 65 % 1018,6 hPa 0,0 l/m² 0,0 km/h 0 min 0,0 UV-I 0 W/m² 15,7 °C 100 %
20.05.2018 22:10 16,2 °C 64 % 1018,6 hPa 0,0 l/m² 0,0 km/h 0 min 0,0 UV-I 0 W/m² 16,2 °C 100 %
20.05.2018 22:00 16,6 °C 61 % 1018,6 hPa 0,0 l/m² 0,0 km/h 0 min 0,0 UV-I 0 W/m² 16,6 °C 93 %
20.05.2018 21:50 16,8 °C 59 % 1018,5 hPa 0,0 l/m² 0,0 km/h 0 min 0,0 UV-I 0 W/m² 16,8 °C 100 %
20.05.2018 21:40 17,0 °C 59 % 1018,6 hPa 0,0 l/m² 1,6 km/h 0 min 0,0 UV-I 0 W/m² 17,0 °C 100 %
20.05.2018 21:30 17,3 °C 57 % 1018,5 hPa 0,0 l/m² 1,6 km/h 0 min 0,0 UV-I 0 W/m² 17,3 °C 100 %
20.05.2018 21:20 17,6 °C 57 % 1018,4 hPa 0,0 l/m² 1,6 km/h 0 min 0,0 UV-I 0 W/m² 17,6 °C 100 %
20.05.2018 21:10 17,8 °C 56 % 1018,3 hPa 0,0 l/m² 1,6 km/h 0 min 0,0 UV-I 0 W/m² 17,8 °C 100 %
20.05.2018 21:00 18,0 °C 54 % 1018,2 hPa 0,0 l/m² 6,3 km/h 0 min 0,0 UV-I 0 W/m² 18,0 °C 100 %
20.05.2018 20:50 18,3 °C 53 % 1018,1 hPa 0,0 l/m² 4,0 km/h 0 min 0,0 UV-I 1 W/m² 18,3 °C 100 %
20.05.2018 20:40 18,5 °C 53 % 1018,1 hPa 0,0 l/m² 5,4 km/h 0 min 0,0 UV-I 7 W/m² 18,5 °C 100 %
20.05.2018 20:30 18,8 °C 52 % 1018,0 hPa 0,0 l/m² 6,1 km/h 0 min 0,0 UV-I 16 W/m² 18,8 °C 100 %
20.05.2018 20:20 19,1 °C 51 % 1017,9 hPa 0,0 l/m² 7,3 km/h 0 min 0,0 UV-I 28 W/m² 18,7 °C 100 %
20.05.2018 20:10 19,4 °C 49 % 1017,8 hPa 0,0 l/m² 8,9 km/h 0 min 0,0 UV-I 38 W/m² 18,4 °C 100 %
20.05.2018 20:00 19,7 °C 47 % 1017,8 hPa 0,0 l/m² 9,9 km/h 0 min 0,0 UV-I 72 W/m² 18,3 °C 100 %
20.05.2018 19:50 19,9 °C 45 % 1017,7 hPa 0,0 l/m² 9,6 km/h 0 min 0,0 UV-I 91 W/m² 18,7 °C 100 %
20.05.2018 19:40 20,3 °C 45 % 1017,7 hPa 0,0 l/m² 8,8 km/h 0 min 0,0 UV-I 93 W/m² 19,4 °C 100 %
20.05.2018 19:30 20,6 °C 45 % 1017,6 hPa 0,0 l/m² 8,9 km/h 0 min 0,0 UV-I 92 W/m² 19,7 °C 100 %
20.05.2018 19:20 20,9 °C 43 % 1017,6 hPa 0,0 l/m² 12,8 km/h 0 min 0,2 UV-I 93 W/m² 18,9 °C 100 %
20.05.2018 19:10 21,3 °C 42 % 1017,5 hPa 0,0 l/m² 8,9 km/h 10 min 0,5 UV-I 130 W/m² 20,4 °C 100 %
20.05.2018 19:00 21,6 °C 40 % 1017,4 hPa 0,0 l/m² 10,0 km/h 10 min 0,6 UV-I 124 W/m² 20,4 °C 100 %
20.05.2018 18:50 21,9 °C 39 % 1017,2 hPa 0,0 l/m² 9,2 km/h 10 min 0,7 UV-I 225 W/m² 21,0 °C 100 %
20.05.2018 18:40 22,2 °C 39 % 1017,2 hPa 0,0 l/m² 12,3 km/h 10 min 0,8 UV-I 287 W/m² 20,5 °C 100 %
20.05.2018 18:30 22,5 °C 40 % 1017,1 hPa 0,0 l/m² 10,0 km/h 10 min 0,9 UV-I 312 W/m² 21,4 °C 100 %
20.05.2018 18:20 22,6 °C 38 % 1017,2 hPa 0,0 l/m² 10,9 km/h 10 min 1,1 UV-I 341 W/m² 21,3 °C 100 %
20.05.2018 18:10 22,9 °C 38 % 1017,2 hPa 0,0 l/m² 8,3 km/h 10 min 1,2 UV-I 368 W/m² 22,3 °C 100 %
20.05.2018 18:00 22,9 °C 37 % 1017,2 hPa 0,0 l/m² 12,3 km/h 10 min 1,4 UV-I 402 W/m² 21,3 °C 100 %
20.05.2018 17:50 23,2 °C 37 % 1017,2 hPa 0,0 l/m² 9,5 km/h 10 min 1,5 UV-I 434 W/m² 22,3 °C 100 %
20.05.2018 17:40 23,3 °C 37 % 1017,3 hPa 0,0 l/m² 8,4 km/h 10 min 1,7 UV-I 443 W/m² 22,7 °C 100 %
20.05.2018 17:30 23,4 °C 37 % 1017,3 hPa 0,0 l/m² 9,2 km/h 10 min 1,9 UV-I 477 W/m² 22,6 °C 100 %
20.05.2018 17:20 23,6 °C 35 % 1017,5 hPa 0,0 l/m² 9,3 km/h 10 min 2,1 UV-I 500 W/m² 22,8 °C 100 %
20.05.2018 17:10 23,8 °C 36 % 1017,4 hPa 0,0 l/m² 8,0 km/h 10 min 2,3 UV-I 536 W/m² 23,3 °C 100 %
20.05.2018 17:00 23,9 °C 36 % 1017,5 hPa 0,0 l/m² 7,0 km/h 10 min 2,5 UV-I 558 W/m² 23,7 °C 100 %
20.05.2018 16:50 23,9 °C 35 % 1017,6 hPa 0,0 l/m² 5,4 km/h 10 min 2,8 UV-I 576 W/m² 23,9 °C 100 %
20.05.2018 16:40 23,6 °C 35 % 1017,7 hPa 0,0 l/m² 6,8 km/h 10 min 3,0 UV-I 598 W/m² 23,5 °C 99 %
20.05.2018 16:30 23,3 °C 36 % 1017,7 hPa 0,0 l/m² 6,9 km/h 10 min 3,2 UV-I 611 W/m² 23,1 °C 100 %
20.05.2018 16:20 23,3 °C 38 % 1017,8 hPa 0,0 l/m² 8,7 km/h 10 min 3,4 UV-I 633 W/m² 22,6 °C 100 %
20.05.2018 16:10 23,4 °C 40 % 1017,9 hPa 0,0 l/m² 9,3 km/h 10 min 3,7 UV-I 659 W/m² 22,6 °C 100 %
20.05.2018 16:00 23,2 °C 37 % 1018,0 hPa 0,0 l/m² 10,0 km/h 10 min 3,8 UV-I 645 W/m² 22,2 °C 100 %
20.05.2018 15:50 23,4 °C 37 % 1018,1 hPa 0,0 l/m² 5,2 km/h 10 min 4,0 UV-I 654 W/m² 23,4 °C 100 %
20.05.2018 15:40 22,5 °C 38 % 1018,3 hPa 0,0 l/m² 13,6 km/h 10 min 4,4 UV-I 749 W/m² 20,6 °C 100 %
20.05.2018 15:30 22,4 °C 39 % 1018,4 hPa 0,0 l/m² 10,5 km/h 10 min 3,6 UV-I 498 W/m² 21,2 °C 100 %
20.05.2018 15:20 22,3 °C 38 % 1018,5 hPa 0,0 l/m² 6,6 km/h 10 min 3,1 UV-I 363 W/m² 22,2 °C 100 %
20.05.2018 15:10 22,2 °C 39 % 1018,6 hPa 0,0 l/m² 9,5 km/h 10 min 3,7 UV-I 495 W/m² 21,2 °C 100 %
20.05.2018 15:00 22,2 °C 36 % 1018,6 hPa 0,0 l/m² 9,6 km/h 10 min 3,7 UV-I 456 W/m² 21,2 °C 100 %
20.05.2018 14:50 22,5 °C 35 % 1018,8 hPa 0,0 l/m² 10,6 km/h 10 min 4,5 UV-I 609 W/m² 21,2 °C 100 %
20.05.2018 14:40 22,7 °C 36 % 1018,9 hPa 0,0 l/m² 13,0 km/h 10 min 4,9 UV-I 706 W/m² 20,9 °C 100 %
20.05.2018 14:30 23,2 °C 36 % 1018,9 hPa 0,0 l/m² 11,5 km/h 10 min 5,8 UV-I 836 W/m² 21,8 °C 100 %
20.05.2018 14:20 23,3 °C 38 % 1018,9 hPa 0,0 l/m² 8,8 km/h 10 min 6,3 UV-I 866 W/m² 22,6 °C 100 %
20.05.2018 14:10 22,9 °C 36 % 1019,0 hPa 0,0 l/m² 8,9 km/h 10 min 6,5 UV-I 881 W/m² 22,1 °C 100 %
20.05.2018 14:00 22,2 °C 37 % 1019,1 hPa 0,0 l/m² 11,9 km/h 10 min 6,1 UV-I 725 W/m² 20,6 °C 100 %
20.05.2018 13:50 22,3 °C 35 % 1019,1 hPa 0,0 l/m² 12,4 km/h 10 min 5,4 UV-I 604 W/m² 20,6 °C 100 %
20.05.2018 13:40 22,4 °C 39 % 1019,2 hPa 0,0 l/m² 8,4 km/h 10 min 5,9 UV-I 744 W/m² 21,7 °C 100 %
20.05.2018 13:30 22,2 °C 41 % 1019,2 hPa 0,0 l/m² 6,5 km/h 10 min 5,0 UV-I 523 W/m² 22,2 °C 100 %
20.05.2018 13:20 22,7 °C 42 % 1019,3 hPa 0,0 l/m² 6,9 km/h 10 min 5,5 UV-I 665 W/m² 22,5 °C 100 %
20.05.2018 13:10 22,6 °C 41 % 1019,5 hPa 0,0 l/m² 8,1 km/h 10 min 6,4 UV-I 802 W/m² 22,1 °C 100 %
20.05.2018 13:00 22,6 °C 42 % 1019,6 hPa 0,0 l/m² 8,8 km/h 10 min 6,4 UV-I 807 W/m² 21,8 °C 100 %
20.05.2018 12:50 22,3 °C 43 % 1019,6 hPa 0,0 l/m² 12,0 km/h 10 min 6,8 UV-I 896 W/m² 20,7 °C 100 %
20.05.2018 12:40 21,8 °C 46 % 1019,8 hPa 0,0 l/m² 11,1 km/h 10 min 6,5 UV-I 831 W/m² 20,3 °C 100 %
20.05.2018 12:30 21,2 °C 45 % 1019,8 hPa 0,0 l/m² 12,9 km/h 10 min 5,5 UV-I 663 W/m² 19,2 °C 100 %
20.05.2018 12:20 21,2 °C 44 % 1019,9 hPa 0,0 l/m² 10,1 km/h 10 min 5,7 UV-I 696 W/m² 19,9 °C 100 %
20.05.2018 12:10 21,2 °C 44 % 1019,9 hPa 0,0 l/m² 13,1 km/h 10 min 6,0 UV-I 778 W/m² 19,1 °C 100 %
20.05.2018 12:00 21,2 °C 43 % 1019,9 hPa 0,0 l/m² 12,8 km/h 10 min 6,4 UV-I 859 W/m² 19,2 °C 100 %
20.05.2018 11:50 20,7 °C 44 % 1020,0 hPa 0,0 l/m² 14,4 km/h 10 min 6,2 UV-I 836 W/m² 18,2 °C 100 %
20.05.2018 11:40 20,4 °C 44 % 1019,9 hPa 0,0 l/m² 14,9 km/h 10 min 5,5 UV-I 724 W/m² 17,8 °C 100 %
20.05.2018 11:30 20,4 °C 46 % 1019,9 hPa 0,0 l/m² 11,8 km/h 10 min 5,0 UV-I 631 W/m² 18,5 °C 100 %
20.05.2018 11:20 20,6 °C 48 % 1020,0 hPa 0,0 l/m² 9,6 km/h 10 min 5,1 UV-I 687 W/m² 19,4 °C 100 %
20.05.2018 11:10 20,1 °C 50 % 1020,1 hPa 0,0 l/m² 11,0 km/h 10 min 5,0 UV-I 690 W/m² 18,4 °C 100 %
20.05.2018 11:00 19,7 °C 55 % 1020,0 hPa 0,0 l/m² 10,2 km/h 10 min 4,5 UV-I 579 W/m² 18,2 °C 100 %
20.05.2018 10:50 19,4 °C 54 % 1020,0 hPa 0,0 l/m² 9,5 km/h 10 min 4,0 UV-I 540 W/m² 18,2 °C 100 %
20.05.2018 10:40 19,4 °C 53 % 1020,1 hPa 0,0 l/m² 9,0 km/h 10 min 4,1 UV-I 608 W/m² 18,3 °C 100 %
20.05.2018 10:30 19,2 °C 53 % 1020,1 hPa 0,0 l/m² 9,1 km/h 10 min 3,7 UV-I 526 W/m² 18,1 °C 100 %
20.05.2018 10:20 19,1 °C 55 % 1020,2 hPa 0,0 l/m² 8,8 km/h 10 min 3,7 UV-I 557 W/m² 18,1 °C 100 %
20.05.2018 10:10 18,7 °C 53 % 1020,3 hPa 0,0 l/m² 10,4 km/h 10 min 3,5 UV-I 547 W/m² 17,1 °C 100 %
20.05.2018 10:00 18,3 °C 55 % 1020,3 hPa 0,0 l/m² 10,4 km/h 10 min 3,2 UV-I 511 W/m² 16,6 °C 100 %
20.05.2018 09:50 18,2 °C 56 % 1020,2 hPa 0,0 l/m² 12,5 km/h 10 min 3,1 UV-I 535 W/m² 15,8 °C 100 %
20.05.2018 09:40 17,8 °C 57 % 1020,2 hPa 0,0 l/m² 8,8 km/h 10 min 2,8 UV-I 478 W/m² 16,7 °C 100 %
20.05.2018 09:30 17,4 °C 57 % 1020,2 hPa 0,0 l/m² 8,9 km/h 10 min 2,3 UV-I 382 W/m² 16,2 °C 100 %
20.05.2018 09:20 17,2 °C 59 % 1020,3 hPa 0,0 l/m² 10,8 km/h 10 min 2,0 UV-I 333 W/m² 15,2 °C 100 %
20.05.2018 09:10 17,3 °C 58 % 1020,4 hPa 0,0 l/m² 11,6 km/h 10 min 2,1 UV-I 398 W/m² 15,1 °C 100 %
20.05.2018 09:00 17,2 °C 58 % 1020,3 hPa 0,0 l/m² 13,9 km/h 10 min 2,2 UV-I 545 W/m² 14,2 °C 100 %
_ Min-Zeit 06:10 17:20 08:40 - 06:50 - - - 06:10 22:00
Minimum _ 12,5 °C 35 % 1016,1 hPa - 0,0 km/h - - - 12,5 °C 93 %
_ Max-Zeit 17:00 06:40 09:10 08:40 11:40 08:40 12:50 12:50 16:50 08:40
Maximum _ 24,0 °C 81 % 1020,4 hPa 0,0 l/m² 14,9 km/h
O-SO
10 min 6,8 UV-I 896 W/m² 23,9 °C 100 %
Durchschnitt _ 18,3 °C 55 % 1018,2 hPa #0,0 l/m² 7,2 km/h #2:00 h 1,0 UV-I 60 W/m² 17,5 °C 100 %